Time;durP1;ratioP1;P1;durP2;ratioP2;P2;SDS_P1;SDS_P2;PMS_P1;PMS_P2;Temp;Humidity;BMP_temperature;BMP_pressure;BME280_temperature;BME280_humidity;BME280_pressure;Samples;Min_cycle;Max_cycle;Signal;HPM_P1;HPM_P2
2022/04/01 00:01:04;;;;;;;15.40;12.83;;;;;;;;;;5034254;28;20180;-46
2022/04/01 00:03:30;;;;;;;16.03;12.97;;;;;;;;;;5034030;28;20560;-47
2022/04/01 00:05:56;;;;;;;14.03;12.53;;;;;;;;;;5033771;28;20430;-49
2022/04/01 00:08:22;;;;;;;14.60;12.10;;;;;;;;;;5034112;28;20418;-45
2022/04/01 00:10:48;;;;;;;14.67;12.30;;;;;;;;;;5033863;28;20424;-45
2022/04/01 00:13:14;;;;;;;15.50;13.53;;;;;;;;;;5033869;28;20441;-45
2022/04/01 00:15:40;;;;;;;14.57;12.90;;;;;;;;;;5033959;28;20501;-45
2022/04/01 00:18:06;;;;;;;13.97;12.37;;;;;;;;;;5034024;28;20418;-45
2022/04/01 00:20:32;;;;;;;19.02;13.05;;;;;;;;;;5033630;28;20452;-49
2022/04/01 00:22:58;;;;;;;12.25;10.95;;;;;;;;;;5033466;28;20199;-46
2022/04/01 00:25:25;;;;;;;13.90;11.52;;;;;;;;;;5033867;28;20191;-45
2022/04/01 00:27:51;;;;;;;14.00;11.25;;;;;;;;;;5033599;28;20650;-45
2022/04/01 00:30:17;;;;;;;12.30;11.00;;;;;;;;;;5033622;28;20164;-45
2022/04/01 00:32:43;;;;;;;13.20;11.75;;;;;;;;;;5032785;28;20218;-47
2022/04/01 00:35:09;;;;;;;14.93;11.50;;;;;;;;;;5033033;28;20168;-46
2022/04/01 00:37:35;;;;;;;14.07;11.80;;;;;;;;;;5033704;28;20429;-45
2022/04/01 00:40:02;;;;;;;15.52;12.45;;;;;;;;;;5033608;28;20896;-46
2022/04/01 00:42:30;;;;;;;14.13;11.20;;;;;;;;;;5033617;28;20245;-45
2022/04/01 00:44:56;;;;;;;14.43;10.80;;;;;;;;;;5033640;28;20194;-45
2022/04/01 00:47:22;;;;;;;12.20;10.93;;;;;;;;;;5032544;28;20172;-45
2022/04/01 00:49:48;;;;;;;14.67;12.33;;;;;;;;;;5033167;28;20422;-45
2022/04/01 00:52:18;;;;;;;14.75;12.30;;;;;;;;;;5035434;28;20454;-45
2022/04/01 00:54:44;;;;;;;13.88;11.55;;;;;;;;;;5038182;28;20234;-46
2022/04/01 00:57:11;;;;;;;13.32;11.93;;;;;;;;;;5035148;28;20172;-46
2022/04/01 00:59:37;;;;;;;13.48;10.55;;;;;;;;;;5038199;28;20167;-45
2022/04/01 01:02:04;;;;;;;14.00;11.80;;;;;;;;;;5032623;28;20175;-45
2022/04/01 01:04:30;;;;;;;13.80;12.35;;;;;;;;;;5032295;28;20696;-45
2022/04/01 01:06:58;;;;;;;12.73;10.68;;;;;;;;;;5032928;28;20717;-45
2022/04/01 01:09:25;;;;;;;11.20;10.10;;;;;;;;;;5032844;28;20178;-45
2022/04/01 01:11:52;;;;;;;13.15;11.60;;;;;;;;;;5032167;28;20643;-49
2022/04/01 01:14:24;;;;;;;12.95;11.65;;;;;;;;;;5032578;28;20172;-45
2022/04/01 01:16:50;;;;;;;16.23;12.52;;;;;;;;;;5032622;28;20163;-46
2022/04/01 01:19:16;;;;;;;15.03;11.60;;;;;;;;;;5033275;28;20225;-46
2022/04/01 01:21:42;;;;;;;14.23;12.75;;;;;;;;;;5032568;28;20402;-46
2022/04/01 01:24:16;;;;;;;12.43;11.13;;;;;;;;;;5032912;28;20254;-45
2022/04/01 01:26:50;;;;;;;13.55;11.23;;;;;;;;;;5032477;28;20207;-48
2022/04/01 01:29:19;;;;;;;35.83;20.80;;;;;;;;;;5032374;28;20206;-48
2022/04/01 01:31:46;;;;;;;13.23;10.60;;;;;;;;;;5030861;28;20178;-45
2022/04/01 01:34:12;;;;;;;12.02;10.45;;;;;;;;;;5020571;28;20195;-48
2022/04/01 01:36:39;;;;;;;10.75;9.70;;;;;;;;;;5032479;28;20187;-48
2022/04/01 01:39:05;;;;;;;10.80;9.55;;;;;;;;;;5032224;28;20215;-48
2022/04/01 01:41:31;;;;;;;12.60;8.93;;;;;;;;;;5032490;28;20681;-48
2022/04/01 01:43:57;;;;;;;10.40;9.30;;;;;;;;;;5031939;28;20655;-48
2022/04/01 01:46:23;;;;;;;10.70;9.07;;;;;;;;;;5032201;28;20636;-48
2022/04/01 01:48:49;;;;;;;9.70;8.70;;;;;;;;;;5032337;28;20179;-48
2022/04/01 01:56:45;;;;;;;10.27;9.30;;;;;;;;;;5031981;28;20682;-49
2022/04/01 01:59:11;;;;;;;14.55;10.77;;;;;;;;;;5032109;28;20175;-48
2022/04/01 02:01:41;;;;;;;11.88;8.85;;;;;;;;;;5031945;28;20187;-48
2022/04/01 02:04:07;;;;;;;9.77;8.82;;;;;;;;;;5031542;28;20195;-48
2022/04/01 02:06:33;;;;;;;10.40;8.40;;;;;;;;;;5031777;28;20175;-48
2022/04/01 02:08:59;;;;;;;10.82;8.60;;;;;;;;;;5031642;28;20262;-49
2022/04/01 02:11:25;;;;;;;10.80;9.70;;;;;;;;;;5031822;28;20203;-48
2022/04/01 02:13:51;;;;;;;9.13;8.30;;;;;;;;;;5031795;28;20238;-48
2022/04/01 02:16:18;;;;;;;8.77;7.85;;;;;;;;;;5031663;28;20422;-48
2022/04/01 02:18:44;;;;;;;8.48;7.15;;;;;;;;;;5032018;28;20313;-48
2022/04/01 02:21:11;;;;;;;9.63;8.30;;;;;;;;;;5031833;28;20246;-48
2022/04/01 02:23:41;;;;;;;8.82;7.95;;;;;;;;;;5031428;28;20677;-48
2022/04/01 02:26:07;;;;;;;8.60;7.75;;;;;;;;;;5031712;28;20631;-50
2022/04/01 02:28:34;;;;;;;10.83;7.80;;;;;;;;;;5031395;28;20179;-48
2022/04/01 02:31:00;;;;;;;7.97;7.22;;;;;;;;;;5031359;28;20441;-47
2022/04/01 02:33:27;;;;;;;6.60;6.00;;;;;;;;;;5031533;28;20286;-48
2022/04/01 02:35:54;;;;;;;7.10;6.40;;;;;;;;;;5031396;28;20421;-48
2022/04/01 02:38:20;;;;;;;7.07;6.32;;;;;;;;;;5031557;28;20697;-48
2022/04/01 02:40:46;;;;;;;7.87;7.07;;;;;;;;;;5031620;28;20167;-48
2022/04/01 02:43:12;;;;;;;6.53;5.73;;;;;;;;;;5031512;28;20430;-49
2022/04/01 02:45:37;;;;;;;7.27;6.57;;;;;;;;;;5031380;28;20419;-48
2022/04/01 02:48:05;;;;;;;6.57;5.77;;;;;;;;;;5031589;28;20425;-48
2022/04/01 02:50:31;;;;;;;7.47;6.00;;;;;;;;;;5031102;28;20439;-49
2022/04/01 02:52:57;;;;;;;5.88;5.20;;;;;;;;;;5031384;28;20672;-49
2022/04/01 02:55:23;;;;;;;6.17;5.57;;;;;;;;;;5031183;28;20206;-48
2022/04/01 02:57:48;;;;;;;7.43;6.33;;;;;;;;;;5030835;28;20422;-48
2022/04/01 03:00:21;;;;;;;5.07;4.67;;;;;;;;;;5034099;28;20455;-48
2022/04/01 03:02:47;;;;;;;6.00;5.50;;;;;;;;;;5031267;28;20784;-48
2022/04/01 03:05:13;;;;;;;6.75;6.15;;;;;;;;;;5031060;28;20192;-49
2022/04/01 03:07:39;;;;;;;8.57;7.15;;;;;;;;;;5031218;28;20172;-48
2022/04/01 03:10:06;;;;;;;6.15;5.63;;;;;;;;;;5032144;28;20237;-48
2022/04/01 03:12:32;;;;;;;8.10;6.00;;;;;;;;;;5035129;28;20195;-48
2022/04/01 03:14:58;;;;;;;6.50;5.38;;;;;;;;;;5035146;28;20183;-49
2022/04/01 03:17:24;;;;;;;6.50;5.90;;;;;;;;;;5033729;28;20558;-50
2022/04/01 03:19:50;;;;;;;6.10;5.50;;;;;;;;;;5034863;28;20797;-50
2022/04/01 03:22:16;;;;;;;6.03;5.47;;;;;;;;;;5034878;28;20941;-48
2022/04/01 03:24:42;;;;;;;6.15;5.65;;;;;;;;;;5034837;28;20449;-50
2022/04/01 03:27:08;;;;;;;5.53;5.03;;;;;;;;;;5021469;28;20177;-48
2022/04/01 03:29:34;;;;;;;6.83;6.23;;;;;;;;;;5034887;28;20261;-48
2022/04/01 03:32:00;;;;;;;7.25;6.55;;;;;;;;;;5033465;28;20410;-48
2022/04/01 03:34:26;;;;;;;6.93;6.10;;;;;;;;;;5035040;28;20687;-47
2022/04/01 03:36:54;;;;;;;6.07;5.57;;;;;;;;;;5034468;28;20422;-47
2022/04/01 03:39:21;;;;;;;6.80;5.88;;;;;;;;;;5034475;28;20172;-49
2022/04/01 03:41:49;;;;;;;6.57;5.97;;;;;;;;;;5034803;28;20180;-48
2022/04/01 03:44:15;;;;;;;9.73;5.47;;;;;;;;;;5034900;28;20187;-49
2022/04/01 03:46:41;;;;;;;7.40;6.03;;;;;;;;;;5034322;28;20222;-47
2022/04/01 03:49:08;;;;;;;6.33;5.83;;;;;;;;;;5034485;28;20184;-49
2022/04/01 03:51:35;;;;;;;6.60;5.95;;;;;;;;;;5034283;28;20505;-48
2022/04/01 03:54:02;;;;;;;6.72;6.13;;;;;;;;;;5034199;28;20196;-50
2022/04/01 03:56:31;;;;;;;6.72;6.07;;;;;;;;;;5033423;28;20182;-48
2022/04/01 03:59:00;;;;;;;6.75;6.15;;;;;;;;;;5034766;28;20182;-48
2022/04/01 04:01:27;;;;;;;10.25;5.47;;;;;;;;;;5032311;28;20184;-48
2022/04/01 04:03:56;;;;;;;6.85;6.18;;;;;;;;;;5033942;28;20203;-48
2022/04/01 04:06:22;;;;;;;7.10;6.05;;;;;;;;;;5034147;28;20581;-48
2022/04/01 04:08:50;;;;;;;7.10;6.40;;;;;;;;;;5033953;28;20171;-48
2022/04/01 04:11:18;;;;;;;6.82;6.18;;;;;;;;;;5034399;28;20160;-48
2022/04/01 04:13:45;;;;;;;6.32;5.82;;;;;;;;;;5033539;28;20249;-48
2022/04/01 04:16:20;;;;;;;6.80;6.20;;;;;;;;;;5034281;28;20168;-48
2022/04/01 04:18:47;;;;;;;6.30;5.72;;;;;;;;;;5033346;28;20254;-48
2022/04/01 04:21:20;;;;;;;5.93;5.43;;;;;;;;;;5033690;28;20176;-48
2022/04/01 04:23:47;;;;;;;6.93;6.30;;;;;;;;;;5033602;28;20685;-49
2022/04/01 04:26:20;;;;;;;6.07;5.47;;;;;;;;;;5033889;28;20172;-48
2022/04/01 04:28:48;;;;;;;6.70;6.10;;;;;;;;;;5034282;28;20172;-48
2022/04/01 04:31:15;;;;;;;7.05;6.45;;;;;;;;;;5033523;28;20171;-48
2022/04/01 04:33:45;;;;;;;6.28;5.70;;;;;;;;;;5021794;28;20192;-48
2022/04/01 04:36:11;;;;;;;6.22;5.63;;;;;;;;;;5033946;28;20171;-48
2022/04/01 04:38:38;;;;;;;6.18;5.60;;;;;;;;;;5033218;28;20188;-48
2022/04/01 04:41:08;;;;;;;5.57;4.93;;;;;;;;;;5033602;28;20163;-48
2022/04/01 04:43:38;;;;;;;5.07;4.68;;;;;;;;;;5033091;28;20295;-48
2022/04/01 04:46:04;;;;;;;6.85;5.53;;;;;;;;;;5034076;28;20595;-48
2022/04/01 04:48:32;;;;;;;5.50;5.10;;;;;;;;;;5033310;28;20175;-48
2022/04/01 04:50:59;;;;;;;6.65;5.38;;;;;;;;;;5033341;28;20215;-48
2022/04/01 04:53:28;;;;;;;5.25;4.75;;;;;;;;;;5032800;28;20270;-47
2022/04/01 04:55:54;;;;;;;7.30;5.05;;;;;;;;;;5033186;28;20168;-48
2022/04/01 04:58:21;;;;;;;5.50;5.00;;;;;;;;;;5037324;28;20181;-47
2022/04/01 05:00:53;;;;;;;5.88;5.35;;;;;;;;;;5045249;28;20184;-48
2022/04/01 05:03:19;;;;;;;6.35;5.75;;;;;;;;;;5032335;28;20690;-48
2022/04/01 05:05:48;;;;;;;6.95;6.30;;;;;;;;;;5033289;28;20695;-48
2022/04/01 05:08:28;;;;;;;5.90;5.30;;;;;;;;;;5033022;28;20174;-48
2022/04/01 05:11:00;;;;;;;5.75;5.25;;;;;;;;;;5032851;28;20168;-49
2022/04/01 05:13:38;;;;;;;6.80;6.15;;;;;;;;;;5032543;28;20192;-48
2022/04/01 05:16:08;;;;;;;6.22;5.32;;;;;;;;;;5033224;28;20647;-48
2022/04/01 05:18:43;;;;;;;6.55;5.65;;;;;;;;;;5032618;28;20172;-48
2022/04/01 05:21:18;;;;;;;6.00;5.55;;;;;;;;;;5032896;28;20253;-48
2022/04/01 05:24:00;;;;;;;6.13;5.50;;;;;;;;;;5032548;28;20747;-49
2022/04/01 05:26:38;;;;;;;6.47;5.88;;;;;;;;;;5032687;28;20320;-47
2022/04/01 05:29:04;;;;;;;6.15;5.55;;;;;;;;;;5032723;28;20191;-48
2022/04/01 05:31:45;;;;;;;6.65;5.75;;;;;;;;;;5032512;28;20194;-47
2022/04/01 05:34:26;;;;;;;7.75;6.25;;;;;;;;;;5031153;28;20206;-48
2022/04/01 05:36:53;;;;;;;7.43;6.72;;;;;;;;;;5031610;28;20279;-48
2022/04/01 05:39:20;;;;;;;7.10;6.40;;;;;;;;;;5031899;28;20171;-48
2022/04/01 05:41:46;;;;;;;6.50;5.97;;;;;;;;;;5031134;28;20520;-48
2022/04/01 05:44:13;;;;;;;7.00;6.38;;;;;;;;;;5028045;28;20587;-48
2022/04/01 05:46:40;;;;;;;7.70;6.78;;;;;;;;;;5031733;28;20182;-48
2022/04/01 05:49:06;;;;;;;7.60;6.90;;;;;;;;;;5031255;28;20179;-48
2022/04/01 05:51:33;;;;;;;8.50;7.70;;;;;;;;;;5031816;28;20204;-48
2022/04/01 05:54:00;;;;;;;9.27;8.38;;;;;;;;;;5031375;28;20277;-48
2022/04/01 05:56:27;;;;;;;7.85;7.15;;;;;;;;;;5032093;28;20262;-48
2022/04/01 05:58:53;;;;;;;9.50;8.18;;;;;;;;;;5034645;28;20180;-50
2022/04/01 06:01:29;;;;;;;7.82;7.13;;;;;;;;;;5031186;28;20647;-48
2022/04/01 06:04:10;;;;;;;9.35;8.45;;;;;;;;;;5028931;28;20202;-48
2022/04/01 06:06:40;;;;;;;7.97;7.18;;;;;;;;;;5031734;28;20640;-49
2022/04/01 06:09:11;;;;;;;7.80;7.10;;;;;;;;;;5030549;28;20242;-49
2022/04/01 06:11:45;;;;;;;9.88;7.97;;;;;;;;;;5031207;28;20182;-47
2022/04/01 06:14:16;;;;;;;6.57;5.95;;;;;;;;;;5031707;28;20681;-47
2022/04/01 06:16:48;;;;;;;9.25;7.63;;;;;;;;;;5031606;28;20240;-48
2022/04/01 06:19:23;;;;;;;8.07;7.30;;;;;;;;;;5031914;28;20211;-48
2022/04/01 06:21:59;;;;;;;7.15;6.55;;;;;;;;;;5031612;28;20225;-47
2022/04/01 06:24:44;;;;;;;7.70;6.97;;;;;;;;;;5031914;28;20617;-48
2022/04/01 06:27:12;;;;;;;8.90;8.00;;;;;;;;;;5019692;28;20249;-48
2022/04/01 06:29:39;;;;;;;8.05;7.10;;;;;;;;;;5031379;28;20180;-48
2022/04/01 06:32:05;;;;;;;9.32;7.07;;;;;;;;;;5031212;28;20179;-48
2022/04/01 06:34:50;;;;;;;9.18;7.43;;;;;;;;;;5031199;28;20175;-48
2022/04/01 06:37:23;;;;;;;7.15;6.45;;;;;;;;;;5017034;28;20190;-48
2022/04/01 06:40:00;;;;;;;8.98;8.10;;;;;;;;;;5030384;28;20194;-48
2022/04/01 06:42:27;;;;;;;8.63;7.72;;;;;;;;;;5031033;28;20191;-49
2022/04/01 06:44:53;;;;;;;7.93;7.13;;;;;;;;;;5031108;28;20203;-50
2022/04/01 06:47:19;;;;;;;11.43;8.20;;;;;;;;;;5035294;28;20228;-48
2022/04/01 06:49:45;;;;;;;8.40;7.30;;;;;;;;;;5034982;28;20500;-48
2022/04/01 06:52:10;;;;;;;9.60;8.23;;;;;;;;;;5034923;28;20445;-48
2022/04/01 06:54:37;;;;;;;8.20;7.10;;;;;;;;;;5035044;28;20406;-50
2022/04/01 06:57:03;;;;;;;8.68;7.70;;;;;;;;;;5035115;28;20913;-48
2022/04/01 06:59:29;;;;;;;9.60;8.32;;;;;;;;;;5041714;28;20254;-49
2022/04/01 07:01:55;;;;;;;9.20;8.20;;;;;;;;;;5035390;28;20666;-48
2022/04/01 07:04:21;;;;;;;9.57;8.57;;;;;;;;;;5034968;28;20454;-48
2022/04/01 07:06:47;;;;;;;9.30;8.10;;;;;;;;;;5035050;28;20412;-48
2022/04/01 07:09:13;;;;;;;11.50;7.80;;;;;;;;;;5035264;28;20406;-48
2022/04/01 07:11:39;;;;;;;8.77;7.87;;;;;;;;;;5035318;28;20236;-47
2022/04/01 07:14:06;;;;;;;8.75;7.85;;;;;;;;;;5034519;28;20547;-48
2022/04/01 07:16:32;;;;;;;9.02;7.60;;;;;;;;;;5034183;28;20171;-48
2022/04/01 07:18:58;;;;;;;7.93;7.05;;;;;;;;;;5035038;28;20193;-48
2022/04/01 07:21:24;;;;;;;10.13;8.40;;;;;;;;;;5034710;28;20262;-48
2022/04/01 07:23:49;;;;;;;10.53;9.43;;;;;;;;;;5034512;28;20869;-50
2022/04/01 07:26:15;;;;;;;12.60;9.60;;;;;;;;;;5035198;28;20605;-50
2022/04/01 07:28:41;;;;;;;10.50;9.40;;;;;;;;;;5034599;28;20409;-49
2022/04/01 07:32:29;;;;;;;12.90;9.30;;;;;;;;;;5034627;28;20457;-50
2022/04/01 07:34:08;;;;;;;12.73;9.90;;;;;;;;;;5031979;28;20742;-48
2022/04/01 07:36:34;;;;;;;11.10;9.47;;;;;;;;;;5039121;28;20179;-46
2022/04/01 07:39:00;;;;;;;11.07;8.77;;;;;;;;;;5034888;28;20425;-46
2022/04/01 07:41:29;;;;;;;9.47;8.50;;;;;;;;;;5034685;28;20674;-46
2022/04/01 07:43:55;;;;;;;9.20;8.07;;;;;;;;;;5033601;28;20821;-48
2022/04/01 07:46:21;;;;;;;8.67;7.03;;;;;;;;;;5034311;28;20171;-46
2022/04/01 07:48:47;;;;;;;7.72;6.47;;;;;;;;;;5034211;28;20464;-47
2022/04/01 07:51:13;;;;;;;7.33;6.33;;;;;;;;;;5034486;28;20171;-46
2022/04/01 07:53:39;;;;;;;6.97;6.27;;;;;;;;;;5034094;28;20477;-46
2022/04/01 07:56:05;;;;;;;6.60;6.00;;;;;;;;;;5033766;28;20429;-46
2022/04/01 07:58:31;;;;;;;6.55;5.95;;;;;;;;;;5040166;28;20421;-45
2022/04/01 08:00:57;;;;;;;5.70;5.23;;;;;;;;;;5035619;28;20190;-46
2022/04/01 08:03:23;;;;;;;6.60;6.00;;;;;;;;;;5034139;28;20525;-47
2022/04/01 08:05:49;;;;;;;6.03;5.43;;;;;;;;;;5033687;28;20258;-47
2022/04/01 08:08:15;;;;;;;5.50;5.10;;;;;;;;;;5033891;28;20425;-46
2022/04/01 08:10:42;;;;;;;6.27;5.77;;;;;;;;;;5033815;28;20417;-46
2022/04/01 08:13:09;;;;;;;6.70;5.93;;;;;;;;;;5033860;28;20466;-47
2022/04/01 08:15:35;;;;;;;6.65;5.95;;;;;;;;;;5033893;28;20167;-48
2022/04/01 08:18:01;;;;;;;7.07;5.80;;;;;;;;;;5033729;28;20663;-46
2022/04/01 08:20:27;;;;;;;6.60;5.90;;;;;;;;;;5034065;28;20450;-48
2022/04/01 08:22:53;;;;;;;6.18;5.57;;;;;;;;;;5033747;28;20488;-48
2022/04/01 08:25:19;;;;;;;6.07;5.40;;;;;;;;;;5033193;28;20636;-49
2022/04/01 08:27:45;;;;;;;5.97;5.47;;;;;;;;;;5033498;28;20418;-48
2022/04/01 08:30:11;;;;;;;6.53;5.80;;;;;;;;;;5031763;28;20414;-48
2022/04/01 08:32:38;;;;;;;6.10;5.50;;;;;;;;;;5031195;28;20434;-47
2022/04/01 08:35:05;;;;;;;5.93;5.35;;;;;;;;;;5033523;28;20176;-48
2022/04/01 08:37:31;;;;;;;5.43;4.93;;;;;;;;;;5033648;28;20176;-48
2022/04/01 08:39:58;;;;;;;7.75;6.85;;;;;;;;;;5033392;28;20593;-47
2022/04/01 08:42:26;;;;;;;6.72;6.13;;;;;;;;;;5031912;28;20191;-48
2022/04/01 08:44:52;;;;;;;7.80;7.00;;;;;;;;;;5031587;28;20265;-45
2022/04/01 08:47:18;;;;;;;10.07;7.73;;;;;;;;;;5033583;28;20168;-46
2022/04/01 08:49:44;;;;;;;8.17;6.97;;;;;;;;;;5032903;28;20461;-46
2022/04/01 08:52:10;;;;;;;6.90;6.20;;;;;;;;;;5033013;28;20934;-46
2022/04/01 08:54:36;;;;;;;7.63;6.88;;;;;;;;;;5033080;28;20259;-48
2022/04/01 08:57:04;;;;;;;7.55;6.65;;;;;;;;;;5033244;28;20172;-46
2022/04/01 08:59:31;;;;;;;10.70;5.85;;;;;;;;;;5041989;28;20864;-46
2022/04/01 09:02:07;;;;;;;7.40;6.18;;;;;;;;;;5032581;28;20183;-46
2022/04/01 09:04:33;;;;;;;7.15;6.45;;;;;;;;;;5033212;28;20199;-45
2022/04/01 09:07:11;;;;;;;6.70;5.13;;;;;;;;;;5032891;28;20544;-45
2022/04/01 09:09:37;;;;;;;6.60;5.75;;;;;;;;;;5032569;28;20409;-46
2022/04/01 09:12:11;;;;;;;6.50;5.67;;;;;;;;;;5033079;28;20170;-47
2022/04/01 09:14:37;;;;;;;6.78;5.80;;;;;;;;;;5033059;28;20406;-48
2022/04/01 09:17:04;;;;;;;6.72;6.03;;;;;;;;;;5033040;28;20175;-48
2022/04/01 09:19:35;;;;;;;9.25;5.90;;;;;;;;;;5032680;28;20222;-47
2022/04/01 09:22:21;;;;;;;5.88;5.30;;;;;;;;;;5032773;28;20172;-46
2022/04/01 09:25:07;;;;;;;5.82;5.25;;;;;;;;;;5032774;28;20199;-49
2022/04/01 09:27:39;;;;;;;6.32;5.50;;;;;;;;;;5031827;28;20539;-48
2022/04/01 09:30:06;;;;;;;5.03;4.63;;;;;;;;;;5032524;28;20254;-48
2022/04/01 09:32:43;;;;;;;5.97;5.35;;;;;;;;;;5032266;28;20191;-48
2022/04/01 09:35:12;;;;;;;6.22;4.50;;;;;;;;;;5032624;28;20404;-49
2022/04/01 09:37:41;;;;;;;5.45;4.95;;;;;;;;;;5032723;28;20167;-45
2022/04/01 09:40:08;;;;;;;5.85;5.25;;;;;;;;;;5032157;28;20911;-46
2022/04/01 09:42:34;;;;;;;7.57;5.20;;;;;;;;;;5032478;28;20195;-46
2022/04/01 09:45:00;;;;;;;5.93;5.43;;;;;;;;;;5031989;28;20191;-46
2022/04/01 09:47:26;;;;;;;6.07;4.90;;;;;;;;;;5032162;28;20191;-46
2022/04/01 09:49:54;;;;;;;7.18;5.50;;;;;;;;;;5031741;28;20183;-48
2022/04/01 09:52:22;;;;;;;5.35;4.95;;;;;;;;;;5032094;28;20186;-46
2022/04/01 09:54:48;;;;;;;6.43;5.05;;;;;;;;;;5032250;28;20159;-46
2022/04/01 09:57:15;;;;;;;6.73;5.97;;;;;;;;;;5032152;28;20255;-45
2022/04/01 09:59:43;;;;;;;6.97;5.22;;;;;;;;;;5035856;28;20435;-45
2022/04/01 10:02:09;;;;;;;4.80;4.43;;;;;;;;;;5031899;28;20233;-49
2022/04/01 10:04:35;;;;;;;5.50;5.00;;;;;;;;;;5032006;28;20207;-46
2022/04/01 10:07:02;;;;;;;5.20;4.72;;;;;;;;;;5032017;28;20409;-46
2022/04/01 10:09:29;;;;;;;5.78;4.93;;;;;;;;;;5031919;28;20172;-48
2022/04/01 10:11:58;;;;;;;4.80;4.35;;;;;;;;;;5031921;28;20600;-47
2022/04/01 10:14:25;;;;;;;5.30;4.90;;;;;;;;;;5030226;28;20179;-48
2022/04/01 10:16:51;;;;;;;11.73;6.72;;;;;;;;;;5030036;28;20172;-49
2022/04/01 10:19:24;;;;;;;7.25;5.70;;;;;;;;;;5031387;28;20194;-47
2022/04/01 10:21:51;;;;;;;5.03;4.63;;;;;;;;;;5031220;28;20183;-48
2022/04/01 10:24:26;;;;;;;7.95;4.85;;;;;;;;;;5031715;28;20192;-47
2022/04/01 10:27:04;;;;;;;4.50;4.15;;;;;;;;;;5031251;28;20175;-48
2022/04/01 10:29:31;;;;;;;6.15;5.38;;;;;;;;;;5031884;28;20266;-48
2022/04/01 10:32:17;;;;;;;5.30;4.88;;;;;;;;;;5031146;28;20225;-47
2022/04/01 10:34:46;;;;;;;7.43;6.32;;;;;;;;;;5031557;28;20180;-47
2022/04/01 10:37:14;;;;;;;6.90;6.10;;;;;;;;;;5031659;28;20180;-48
2022/04/01 10:39:50;;;;;;;7.93;5.10;;;;;;;;;;5031281;28;20182;-49
2022/04/01 10:42:16;;;;;;;6.75;5.82;;;;;;;;;;5031617;28;20270;-48
2022/04/01 10:44:45;;;;;;;6.55;5.82;;;;;;;;;;5031409;28;20195;-47
2022/04/01 10:47:11;;;;;;;7.32;5.60;;;;;;;;;;5031751;28;20192;-48
2022/04/01 10:52:23;;;;;;;6.90;6.00;;;;;;;;;;5031505;28;20197;-47
2022/04/01 10:54:50;;;;;;;10.27;6.25;;;;;;;;;;5031360;28;20183;-47
2022/04/01 10:57:26;;;;;;;8.20;6.60;;;;;;;;;;5031376;28;20628;-48
2022/04/01 10:59:54;;;;;;;7.50;6.80;;;;;;;;;;5048360;28;20166;-47
2022/04/01 11:02:21;;;;;;;11.82;9.68;;;;;;;;;;5045808;28;20540;-47
2022/04/01 11:04:48;;;;;;;17.00;11.25;;;;;;;;;;5031218;28;20195;-47
2022/04/01 11:07:23;;;;;;;7.63;6.65;;;;;;;;;;5031338;28;20172;-48
2022/04/01 11:09:54;;;;;;;7.03;6.32;;;;;;;;;;5031343;28;20172;-46
2022/04/01 11:12:28;;;;;;;7.38;6.70;;;;;;;;;;5031133;28;20813;-46
2022/04/01 11:15:10;;;;;;;9.63;6.65;;;;;;;;;;5031416;28;20162;-48
2022/04/01 11:17:36;;;;;;;8.65;6.65;;;;;;;;;;5031315;28;20600;-46
2022/04/01 11:20:03;;;;;;;8.80;6.57;;;;;;;;;;5031269;28;20206;-46
2022/04/01 11:22:39;;;;;;;7.07;6.35;;;;;;;;;;5030752;28;20945;-46
2022/04/01 11:25:05;;;;;;;8.65;7.30;;;;;;;;;;5030198;28;20546;-47
2022/04/01 11:27:34;;;;;;;10.00;8.65;;;;;;;;;;5030633;28;20176;-48
2022/04/01 11:30:05;;;;;;;11.52;8.27;;;;;;;;;;5029680;28;20670;-48
2022/04/01 11:32:31;;;;;;;9.25;8.35;;;;;;;;;;5034381;28;20597;-50
2022/04/01 11:34:57;;;;;;;8.97;7.97;;;;;;;;;;5035088;28;20258;-50
2022/04/01 11:37:25;;;;;;;9.93;8.50;;;;;;;;;;5034666;28;20817;-48
2022/04/01 11:39:51;;;;;;;8.73;7.75;;;;;;;;;;5034323;28;20418;-50
2022/04/01 11:42:16;;;;;;;8.63;7.80;;;;;;;;;;5033361;28;20213;-50
2022/04/01 11:44:56;;;;;;;7.83;6.83;;;;;;;;;;5034590;28;20467;-48
2022/04/01 11:47:32;;;;;;;8.50;7.60;;;;;;;;;;5034272;28;20910;-50
2022/04/01 11:50:08;;;;;;;10.90;8.70;;;;;;;;;;5030721;28;20186;-48
2022/04/01 11:52:41;;;;;;;9.82;8.90;;;;;;;;;;5034584;28;20207;-50
2022/04/01 11:55:18;;;;;;;9.65;8.35;;;;;;;;;;5034587;28;20172;-47
2022/04/01 11:57:45;;;;;;;11.43;9.52;;;;;;;;;;5034107;28;20167;-48
2022/04/01 12:00:11;;;;;;;9.32;8.38;;;;;;;;;;5034977;28;20178;-50
2022/04/01 12:02:37;;;;;;;9.57;8.55;;;;;;;;;;5033992;28;20187;-48
2022/04/01 12:05:04;;;;;;;8.90;8.05;;;;;;;;;;5033993;28;20544;-49
2022/04/01 12:10:22;;;;;;;10.25;9.23;;;;;;;;;;5033784;28;20811;-51
2022/04/01 12:12:55;;;;;;;9.80;8.50;;;;;;;;;;5033790;28;20274;-50
2022/04/01 12:15:40;;;;;;;9.93;8.93;;;;;;;;;;5032931;28;20206;-49
2022/04/01 12:18:07;;;;;;;11.27;10.18;;;;;;;;;;5014452;28;20179;-48
2022/04/01 12:20:44;;;;;;;11.65;10.30;;;;;;;;;;5015429;28;20177;-48
2022/04/01 12:23:10;;;;;;;10.15;8.93;;;;;;;;;;5033973;28;20580;-49
2022/04/01 12:25:39;;;;;;;10.90;8.85;;;;;;;;;;5033228;28;20536;-47
2022/04/01 12:28:07;;;;;;;8.30;7.45;;;;;;;;;;5030540;28;20187;-46
2022/04/01 12:30:46;;;;;;;8.65;7.75;;;;;;;;;;5033326;28;20171;-46
2022/04/01 12:33:18;;;;;;;8.57;7.35;;;;;;;;;;5033787;28;20197;-48
2022/04/01 12:35:49;;;;;;;8.00;6.53;;;;;;;;;;5033797;28;20168;-46
2022/04/01 12:38:15;;;;;;;9.02;7.53;;;;;;;;;;5033623;28;20259;-46
2022/04/01 12:40:44;;;;;;;10.90;7.25;;;;;;;;;;5033236;28;20167;-46
2022/04/01 12:43:32;;;;;;;9.70;7.13;;;;;;;;;;5032085;28;20702;-46
2022/04/01 12:45:59;;;;;;;7.90;7.13;;;;;;;;;;5033030;28;20180;-47
2022/04/01 12:48:26;;;;;;;9.25;7.78;;;;;;;;;;5033521;28;20207;-47
2022/04/01 12:50:55;;;;;;;9.00;7.75;;;;;;;;;;5028725;28;20753;-47
2022/04/01 12:53:21;;;;;;;12.25;7.68;;;;;;;;;;5023693;28;20200;-45
2022/04/01 12:55:47;;;;;;;7.97;6.83;;;;;;;;;;5014537;28;20187;-47
2022/04/01 12:58:14;;;;;;;8.03;7.20;;;;;;;;;;5022706;28;20420;-49
2022/04/01 13:00:40;;;;;;;8.70;6.80;;;;;;;;;;5013695;28;20419;-45
2022/04/01 13:03:08;;;;;;;9.13;7.20;;;;;;;;;;5016936;28;20274;-48
2022/04/01 13:05:34;;;;;;;9.85;6.53;;;;;;;;;;5031648;28;20559;-47
2022/04/01 13:08:00;;;;;;;12.35;7.82;;;;;;;;;;5031644;28;20230;-47
2022/04/01 13:10:27;;;;;;;11.67;8.17;;;;;;;;;;5032023;28;20172;-47
2022/04/01 13:12:55;;;;;;;11.43;7.97;;;;;;;;;;5032024;28;20414;-48
2022/04/01 13:15:23;;;;;;;12.77;7.80;;;;;;;;;;5036413;28;20532;-48
2022/04/01 13:17:54;;;;;;;9.65;8.75;;;;;;;;;;5044365;28;20180;-48
2022/04/01 13:20:21;;;;;;;11.82;9.18;;;;;;;;;;5031095;28;20179;-45
2022/04/01 13:22:47;;;;;;;11.75;9.23;;;;;;;;;;5029208;28;20208;-46
2022/04/01 13:25:13;;;;;;;9.48;8.48;;;;;;;;;;5032625;28;20196;-46
2022/04/01 13:27:40;;;;;;;10.80;8.90;;;;;;;;;;5021759;28;20172;-46
2022/04/01 13:30:07;;;;;;;12.98;9.48;;;;;;;;;;5028268;28;20195;-45
2022/04/01 13:32:33;;;;;;;13.40;8.65;;;;;;;;;;5032244;28;20192;-49
2022/04/01 13:34:59;;;;;;;12.75;11.20;;;;;;;;;;5032680;28;20187;-47
2022/04/01 13:37:25;;;;;;;14.00;8.30;;;;;;;;;;5032606;28;20218;-49
2022/04/01 13:39:51;;;;;;;12.13;9.13;;;;;;;;;;5031994;28;20207;-47
2022/04/01 13:42:19;;;;;;;12.15;8.55;;;;;;;;;;5031968;28;20879;-46
2022/04/01 13:44:45;;;;;;;19.27;9.02;;;;;;;;;;5032209;28;20790;-46
2022/04/01 13:47:11;;;;;;;10.65;8.80;;;;;;;;;;5032434;28;20183;-45
2022/04/01 13:49:37;;;;;;;11.83;8.83;;;;;;;;;;5032582;28;20183;-46
2022/04/01 13:52:04;;;;;;;10.70;8.32;;;;;;;;;;5030933;28;20407;-46
2022/04/01 13:54:30;;;;;;;10.70;8.32;;;;;;;;;;5031826;28;20670;-46
2022/04/01 13:56:56;;;;;;;13.75;8.35;;;;;;;;;;5032054;28;20183;-45
2022/04/01 13:59:22;;;;;;;9.90;8.13;;;;;;;;;;5039454;28;20172;-46
2022/04/01 14:01:51;;;;;;;9.57;7.75;;;;;;;;;;5031388;28;20168;-45
2022/04/01 14:04:19;;;;;;;9.05;8.13;;;;;;;;;;5031722;28;20200;-46
2022/04/01 14:06:47;;;;;;;8.55;7.68;;;;;;;;;;5031609;28;20174;-45
2022/04/01 14:09:13;;;;;;;14.82;10.55;;;;;;;;;;5036294;28;20170;-45
2022/04/01 14:11:39;;;;;;;11.73;8.93;;;;;;;;;;5031886;28;20173;-49
2022/04/01 14:14:06;;;;;;;10.05;7.53;;;;;;;;;;5031870;28;20338;-49
2022/04/01 14:16:36;;;;;;;10.90;8.00;;;;;;;;;;5032199;28;20876;-48
2022/04/01 14:19:06;;;;;;;10.63;8.50;;;;;;;;;;5032193;28;20548;-49
2022/04/01 14:21:35;;;;;;;12.00;7.70;;;;;;;;;;5031837;28;20194;-49
2022/04/01 14:24:02;;;;;;;10.15;7.65;;;;;;;;;;5031772;28;20199;-46
2022/04/01 14:26:28;;;;;;;7.45;6.45;;;;;;;;;;5032035;28;20175;-47
2022/04/01 14:28:55;;;;;;;8.70;7.80;;;;;;;;;;5031931;28;20168;-45
2022/04/01 14:31:21;;;;;;;8.70;7.80;;;;;;;;;;5032004;28;20323;-45
2022/04/01 14:33:48;;;;;;;9.95;7.90;;;;;;;;;;5031941;28;20187;-46
2022/04/01 14:36:14;;;;;;;10.35;7.55;;;;;;;;;;5031939;28;20163;-45
2022/04/01 14:38:40;;;;;;;11.05;7.53;;;;;;;;;;5031797;28;20864;-45
2022/04/01 14:41:06;;;;;;;8.23;7.47;;;;;;;;;;5031487;28;20703;-48
2022/04/01 14:43:33;;;;;;;7.75;7.07;;;;;;;;;;5031504;28;20667;-48
2022/04/01 14:45:59;;;;;;;8.10;7.30;;;;;;;;;;5031878;28;20163;-46
2022/04/01 14:48:25;;;;;;;7.70;6.78;;;;;;;;;;5031841;28;20172;-46
2022/04/01 14:50:51;;;;;;;10.10;7.10;;;;;;;;;;5031499;28;20550;-47
2022/04/01 14:53:17;;;;;;;10.83;8.10;;;;;;;;;;5031627;28;20179;-47
2022/04/01 14:55:43;;;;;;;8.18;7.38;;;;;;;;;;5031582;28;20406;-46